Airfield :
LOGIN :

Register | Disclaimer

   EN    FR    IT 

 










Legend :    VFR   Marginal VFR   IFR   Intensive IFR   Very Intensive IFR
Visi :
Ceiling :
>= 8 km
>= 3000ft
5 to 8 km
1000 to 3000 ft
1500m to 5 km
500 to 1000 ft
800 to 1500m
200 to 500 ft
< 800m
< 200 ft
Symbols :   Thunderstorms  Fog  Heavy snow  Heavy precipitations  Wind > 20 kt
SIGMETs :     Misc.  Thunderstorms  Icing  Turbulence  Mountain Waves  Volcanic Ashes







- Airport Elevation : 1079 ft


ETIK - Illesheim Air Base

CURRENT METAR :
  • 251802Z AUTO 00000KT 9999 SCT014 06/01 A2980 RMK AO2

EXPIRED METARs :
  • 251658Z AUTO 31005KT 9999 OVC037 07/01 A2979 RMK AO2 SLP097 T00700014
  • 251558Z AUTO 32007KT 9999 SCT028 BKN035 07/02 A2979 RMK AO2 SLP100 T00730020

TAF AMD TAF ETIK
Valid from the 25 at 14:00 until the 26 at 19:00 UTC


251449Z 2514/2619 32009KT 9999 BKN020 OVC030 610309 611206 QNH2975INS
BECMG 2516/2517 30009KT 8000 -RA BKN020 OVC030 610309 611206 QNH2973INS
BECMG 2601/2602 VRB06KT 8000 -RA BKN014 OVC030 610309 611206 QNH2971INS
TEMPO 2602/2607 BKN008
BECMG 2609/2610 02006KT 9999 NSW BKN030 610309 611206 QNH2978INS TX09/2515Z TNM01/2603Z
No reported NOTAMs for that airfield.



MET'MAP, your aeronautical weather chart ! - Copyright ORBIFLY December 2007 - Disclaimer

ORBIFLY MET'MAP TEAM :

Programming & Development : Alexandra Zaïnal
Concept & Development : Baudouin d'Aumeries
Co-Development & Prog : Marc-Olivier Méhu
Technical & hardware support : Manuel Goepfert

Contact : metmap@orbifly.com




SOURCES & CREDITS :

   NOAA